Time;durP1;ratioP1;P1;durP2;ratioP2;P2;SDS_P1;SDS_P2;PMS_P1;PMS_P2;Temp;Humidity;BMP_temperature;BMP_pressure;BME280_temperature;BME280_humidity;BME280_pressure;Samples;Min_cycle;Max_cycle;Signal;HPM_P1;HPM_P2
2021/01/25 00:01:04;;;;;;;8.07;4.23;;;;;;;;;;5132641;27;20400;-89
2021/01/25 00:03:29;;;;;;;8.97;4.73;;;;;;;;;;5132119;27;20023;-88
2021/01/25 00:05:54;;;;;;;7.33;4.30;;;;;;;;;;5132326;27;20019;-89
2021/01/25 00:08:20;;;;;;;7.47;4.30;;;;;;;;;;5131536;27;20380;-89
2021/01/25 00:10:45;;;;;;;8.07;4.50;;;;;;;;;;5132428;27;20042;-89
2021/01/25 00:13:10;;;;;;;6.50;4.57;;;;;;;;;;5133570;28;20015;-89
2021/01/25 00:15:35;;;;;;;8.77;4.70;;;;;;;;;;5133146;28;20022;-89
2021/01/25 00:18:00;;;;;;;7.03;4.47;;;;;;;;;;5133448;28;20307;-89
2021/01/25 00:20:26;;;;;;;9.03;5.40;;;;;;;;;;5133368;28;20140;-89
2021/01/25 00:22:51;;;;;;;8.80;4.87;;;;;;;;;;5131887;28;20011;-90
2021/01/25 00:25:16;;;;;;;7.07;4.53;;;;;;;;;;5132365;28;20026;-89
2021/01/25 00:27:42;;;;;;;8.83;4.63;;;;;;;;;;5132025;28;20023;-88
2021/01/25 00:30:09;;;;;;;7.37;4.67;;;;;;;;;;5130447;28;20826;-90
2021/01/25 00:32:34;;;;;;;9.70;5.00;;;;;;;;;;5132175;28;20102;-89
2021/01/25 00:34:59;;;;;;;9.60;4.67;;;;;;;;;;5132084;28;20393;-89
2021/01/25 00:37:24;;;;;;;10.77;5.30;;;;;;;;;;5132250;28;20425;-89
2021/01/25 00:39:49;;;;;;;8.73;5.33;;;;;;;;;;5132089;28;20023;-89
2021/01/25 00:42:15;;;;;;;7.17;4.70;;;;;;;;;;5132959;27;20020;-90
2021/01/25 00:44:40;;;;;;;9.80;5.07;;;;;;;;;;5135228;27;20073;-90
2021/01/25 00:47:05;;;;;;;11.23;4.60;;;;;;;;;;5136372;27;20126;-89
2021/01/25 00:49:30;;;;;;;6.60;4.60;;;;;;;;;;5135992;27;20730;-89
2021/01/25 00:51:55;;;;;;;8.93;4.80;;;;;;;;;;5135949;27;20011;-90
2021/01/25 00:54:21;;;;;;;11.03;5.30;;;;;;;;;;5137833;27;20019;-90
2021/01/25 00:56:47;;;;;;;8.93;4.90;;;;;;;;;;5134993;27;20060;-82
2021/01/25 00:59:12;;;;;;;8.10;5.00;;;;;;;;;;5134864;27;20026;-82
2021/01/25 01:01:38;;;;;;;8.90;5.07;;;;;;;;;;5136387;27;20012;-82
2021/01/25 01:04:03;;;;;;;9.37;5.33;;;;;;;;;;5135269;27;20030;-82
2021/01/25 01:06:28;;;;;;;7.90;5.20;;;;;;;;;;5136527;27;20068;-82
2021/01/25 01:08:53;;;;;;;8.53;5.17;;;;;;;;;;5134941;27;20440;-83
2021/01/25 01:11:18;;;;;;;8.83;5.23;;;;;;;;;;5134869;27;20034;-82
2021/01/25 01:13:44;;;;;;;7.67;4.93;;;;;;;;;;5135099;27;20060;-82
2021/01/25 01:16:09;;;;;;;6.77;4.53;;;;;;;;;;5136517;27;20022;-83
2021/01/25 01:18:35;;;;;;;9.33;4.67;;;;;;;;;;5134492;27;20011;-82
2021/01/25 01:21:00;;;;;;;9.43;5.30;;;;;;;;;;5134528;27;20040;-83
2021/01/25 01:23:26;;;;;;;8.03;5.30;;;;;;;;;;5134485;27;20016;-82
2021/01/25 01:25:51;;;;;;;7.73;5.23;;;;;;;;;;5134490;27;20011;-82
2021/01/25 01:28:16;;;;;;;9.63;5.37;;;;;;;;;;5133146;27;20068;-82
2021/01/25 01:30:41;;;;;;;8.43;5.20;;;;;;;;;;5127611;27;20479;-83
2021/01/25 01:33:06;;;;;;;8.30;5.00;;;;;;;;;;5133972;27;20023;-82
2021/01/25 01:35:31;;;;;;;14.10;5.60;;;;;;;;;;5134546;27;20022;-82
2021/01/25 01:37:57;;;;;;;8.87;5.43;;;;;;;;;;5134447;27;20043;-83
2021/01/25 01:40:22;;;;;;;9.27;5.83;;;;;;;;;;5134759;27;20015;-83
2021/01/25 01:42:47;;;;;;;7.97;5.47;;;;;;;;;;5133738;27;20118;-82
2021/01/25 01:45:13;;;;;;;8.63;5.57;;;;;;;;;;5131654;27;20015;-83
2021/01/25 01:47:39;;;;;;;8.23;4.90;;;;;;;;;;5132055;27;20023;-83
2021/01/25 01:50:05;;;;;;;8.13;5.73;;;;;;;;;;5132032;27;20135;-83
2021/01/25 01:52:31;;;;;;;11.57;5.67;;;;;;;;;;5132518;27;20027;-83
2021/01/25 01:54:59;;;;;;;9.20;5.53;;;;;;;;;;5133352;27;20023;-82
2021/01/25 01:57:24;;;;;;;8.33;5.20;;;;;;;;;;5132277;27;20011;-83
2021/01/25 01:59:49;;;;;;;6.77;5.07;;;;;;;;;;5131674;27;20090;-82
2021/01/25 02:02:14;;;;;;;8.87;5.40;;;;;;;;;;5132110;27;20068;-83
2021/01/25 02:04:40;;;;;;;10.43;5.73;;;;;;;;;;5132150;27;20045;-83
2021/01/25 02:07:06;;;;;;;9.13;5.50;;;;;;;;;;5132180;27;20020;-83
2021/01/25 02:09:33;;;;;;;8.43;5.33;;;;;;;;;;5133121;27;20030;-83
2021/01/25 02:11:58;;;;;;;7.90;4.93;;;;;;;;;;5131116;27;20015;-82
2021/01/25 02:14:24;;;;;;;8.60;5.90;;;;;;;;;;5135021;27;20155;-82
2021/01/25 02:16:49;;;;;;;9.83;6.23;;;;;;;;;;5133475;27;20484;-83
2021/01/25 02:19:17;;;;;;;10.57;6.57;;;;;;;;;;5135027;27;20029;-83
2021/01/25 02:21:50;;;;;;;9.93;6.10;;;;;;;;;;5132800;27;20022;-83
2021/01/25 02:24:22;;;;;;;12.40;7.00;;;;;;;;;;5133683;27;20080;-82
2021/01/25 02:27:06;;;;;;;12.30;6.40;;;;;;;;;;5133388;27;20050;-82
2021/01/25 02:29:32;;;;;;;10.77;6.33;;;;;;;;;;5133439;27;20056;-83
2021/01/25 02:31:57;;;;;;;9.73;6.50;;;;;;;;;;5133186;27;20103;-82
2021/01/25 02:34:24;;;;;;;8.90;5.90;;;;;;;;;;5134685;27;20034;-82
2021/01/25 02:36:50;;;;;;;10.30;6.20;;;;;;;;;;5133350;27;20402;-82
2021/01/25 02:39:16;;;;;;;9.17;5.93;;;;;;;;;;5133192;27;20019;-83
2021/01/25 02:41:42;;;;;;;10.17;6.37;;;;;;;;;;5133254;27;20015;-82
2021/01/25 02:44:07;;;;;;;11.97;6.63;;;;;;;;;;5132994;27;20084;-83
2021/01/25 02:46:33;;;;;;;9.57;6.47;;;;;;;;;;5133258;27;20027;-83
2021/01/25 02:48:59;;;;;;;11.30;6.40;;;;;;;;;;5132912;27;20031;-82
2021/01/25 02:51:24;;;;;;;13.90;6.53;;;;;;;;;;5132602;27;20031;-82
2021/01/25 02:53:49;;;;;;;9.43;6.03;;;;;;;;;;5133242;27;20019;-82
2021/01/25 02:56:15;;;;;;;10.00;6.17;;;;;;;;;;5134107;27;20021;-82
2021/01/25 02:58:40;;;;;;;10.13;6.10;;;;;;;;;;5132550;27;20015;-82
2021/01/25 03:01:06;;;;;;;12.00;6.40;;;;;;;;;;5132888;27;20027;-82
2021/01/25 03:03:32;;;;;;;10.30;7.17;;;;;;;;;;5132881;27;20085;-82
2021/01/25 03:05:57;;;;;;;13.37;7.83;;;;;;;;;;5131621;27;20024;-82
2021/01/25 03:08:26;;;;;;;11.43;7.20;;;;;;;;;;5132536;27;20467;-83
2021/01/25 03:10:51;;;;;;;13.47;7.50;;;;;;;;;;5134159;27;20030;-83
2021/01/25 03:13:16;;;;;;;14.40;7.60;;;;;;;;;;5132261;27;20110;-83
2021/01/25 03:15:43;;;;;;;11.60;7.50;;;;;;;;;;5132679;27;20015;-83
2021/01/25 03:18:08;;;;;;;10.20;7.07;;;;;;;;;;5133758;27;20034;-82
2021/01/25 03:20:33;;;;;;;13.07;7.30;;;;;;;;;;5132718;27;20016;-83
2021/01/25 03:22:58;;;;;;;11.53;7.63;;;;;;;;;;5132039;27;20446;-82
2021/01/25 03:25:23;;;;;;;13.83;7.77;;;;;;;;;;5132582;27;20062;-83
2021/01/25 03:27:49;;;;;;;12.30;7.77;;;;;;;;;;5132355;27;20326;-83
2021/01/25 03:30:14;;;;;;;13.57;7.50;;;;;;;;;;5132241;27;20023;-82
2021/01/25 03:32:40;;;;;;;13.63;7.80;;;;;;;;;;5132645;27;20024;-83
2021/01/25 03:35:05;;;;;;;8.93;6.67;;;;;;;;;;5131956;27;20058;-83
2021/01/25 03:37:31;;;;;;;12.27;7.33;;;;;;;;;;5132324;27;20091;-82
2021/01/25 03:39:57;;;;;;;11.53;6.80;;;;;;;;;;5132164;27;20007;-83
2021/01/25 03:42:22;;;;;;;10.27;6.77;;;;;;;;;;5131802;27;20027;-82
2021/01/25 03:44:47;;;;;;;14.00;7.90;;;;;;;;;;5132218;27;20019;-83
2021/01/25 03:47:12;;;;;;;10.53;7.33;;;;;;;;;;5131811;27;20019;-83
2021/01/25 03:49:37;;;;;;;10.00;6.50;;;;;;;;;;5132138;27;20030;-83
2021/01/25 03:52:03;;;;;;;10.63;6.77;;;;;;;;;;5132238;27;20011;-83
2021/01/25 03:54:28;;;;;;;9.67;6.30;;;;;;;;;;5133022;27;20034;-83
2021/01/25 03:56:53;;;;;;;8.43;5.63;;;;;;;;;;5131601;27;20156;-83
2021/01/25 03:59:18;;;;;;;8.40;5.47;;;;;;;;;;5133339;27;20011;-83
2021/01/25 04:01:43;;;;;;;9.50;6.27;;;;;;;;;;5131928;27;20068;-82
2021/01/25 04:04:09;;;;;;;13.03;7.27;;;;;;;;;;5132042;27;20105;-83
2021/01/25 04:06:34;;;;;;;11.47;7.23;;;;;;;;;;5131290;27;20481;-83
2021/01/25 04:08:59;;;;;;;10.80;6.90;;;;;;;;;;5131771;27;20031;-83
2021/01/25 04:11:24;;;;;;;12.00;7.80;;;;;;;;;;5131662;27;20030;-83
2021/01/25 04:13:49;;;;;;;12.73;7.50;;;;;;;;;;5131574;27;20102;-82
2021/01/25 04:16:14;;;;;;;13.07;7.67;;;;;;;;;;5132833;28;20466;-83
2021/01/25 04:18:40;;;;;;;13.17;7.90;;;;;;;;;;5138868;27;20019;-83
2021/01/25 04:21:05;;;;;;;11.97;7.90;;;;;;;;;;5138369;27;20023;-82
2021/01/25 04:23:30;;;;;;;13.07;8.33;;;;;;;;;;5138553;27;20609;-82
2021/01/25 04:25:55;;;;;;;16.80;8.20;;;;;;;;;;5138661;27;20019;-83
2021/01/25 04:28:20;;;;;;;11.23;7.77;;;;;;;;;;5138202;27;20382;-82
2021/01/25 04:30:46;;;;;;;12.37;7.67;;;;;;;;;;5138445;27;20011;-82
2021/01/25 04:33:11;;;;;;;10.60;7.23;;;;;;;;;;5138328;27;20026;-83
2021/01/25 04:35:39;;;;;;;12.40;7.93;;;;;;;;;;5138427;27;20722;-83
2021/01/25 04:38:05;;;;;;;11.50;7.50;;;;;;;;;;5139762;27;20080;-83
2021/01/25 04:40:30;;;;;;;10.67;7.17;;;;;;;;;;5138584;27;20027;-82
2021/01/25 04:42:56;;;;;;;14.87;7.10;;;;;;;;;;5138067;27;20090;-83
2021/01/25 04:45:21;;;;;;;13.33;7.40;;;;;;;;;;5138552;27;20377;-83
2021/01/25 04:47:47;;;;;;;10.80;7.10;;;;;;;;;;5138091;27;20015;-83
2021/01/25 04:50:14;;;;;;;11.03;7.23;;;;;;;;;;5139578;27;20023;-83
2021/01/25 04:52:40;;;;;;;11.30;8.13;;;;;;;;;;5137991;27;20332;-83
2021/01/25 04:55:05;;;;;;;14.63;8.60;;;;;;;;;;5138173;27;20080;-82
2021/01/25 04:57:31;;;;;;;13.93;8.57;;;;;;;;;;5137232;27;20016;-83
2021/01/25 04:59:57;;;;;;;14.40;8.87;;;;;;;;;;5138087;27;20031;-83
2021/01/25 05:02:22;;;;;;;14.10;9.10;;;;;;;;;;5138421;27;20054;-82
2021/01/25 05:04:48;;;;;;;18.30;8.97;;;;;;;;;;5138392;27;20474;-83
2021/01/25 05:07:13;;;;;;;13.20;8.63;;;;;;;;;;5138126;27;20019;-83
2021/01/25 05:09:38;;;;;;;13.10;8.50;;;;;;;;;;5139407;27;20390;-83
2021/01/25 05:12:03;;;;;;;13.37;8.40;;;;;;;;;;5137914;27;20026;-83
2021/01/25 05:14:39;;;;;;;19.43;9.53;;;;;;;;;;5137898;27;20023;-82
2021/01/25 05:17:05;;;;;;;15.60;9.47;;;;;;;;;;5129465;27;20019;-83
2021/01/25 05:19:30;;;;;;;17.87;11.23;;;;;;;;;;5138106;27;20377;-83
2021/01/25 05:21:55;;;;;;;18.17;10.73;;;;;;;;;;5137637;27;20011;-83
2021/01/25 05:24:21;;;;;;;24.20;12.90;;;;;;;;;;5137692;27;20033;-83
2021/01/25 05:26:50;;;;;;;20.50;12.17;;;;;;;;;;5137695;27;20019;-83
2021/01/25 05:29:22;;;;;;;20.90;13.47;;;;;;;;;;5136705;27;20382;-83
2021/01/25 05:31:48;;;;;;;25.30;14.32;;;;;;;;;;5134526;27;20027;-82
2021/01/25 05:34:16;;;;;;;26.33;14.20;;;;;;;;;;5134782;27;20408;-82
2021/01/25 05:36:41;;;;;;;29.07;15.77;;;;;;;;;;5134260;27;20442;-82
2021/01/25 05:39:06;;;;;;;28.10;15.20;;;;;;;;;;5134276;27;20093;-83
2021/01/25 05:41:34;;;;;;;27.70;15.20;;;;;;;;;;5135696;27;20015;-83
2021/01/25 05:44:00;;;;;;;29.07;15.67;;;;;;;;;;5133097;27;20023;-83
2021/01/25 05:46:25;;;;;;;26.80;15.50;;;;;;;;;;5132907;27;20440;-83
2021/01/25 05:48:58;;;;;;;29.77;16.30;;;;;;;;;;5133813;27;20103;-83
2021/01/25 05:51:23;;;;;;;27.53;15.67;;;;;;;;;;5132459;27;20015;-83
2021/01/25 05:53:48;;;;;;;28.50;16.60;;;;;;;;;;5132769;27;20431;-83
2021/01/25 05:56:14;;;;;;;33.50;17.07;;;;;;;;;;5131862;27;20022;-83
2021/01/25 05:58:40;;;;;;;31.80;17.90;;;;;;;;;;5132279;27;20015;-83
2021/01/25 06:01:06;;;;;;;35.90;19.87;;;;;;;;;;5132711;27;20367;-83
2021/01/25 06:03:36;;;;;;;32.87;17.23;;;;;;;;;;5132578;27;20049;-83
2021/01/25 06:06:02;;;;;;;35.83;18.17;;;;;;;;;;5131856;27;20019;-83
2021/01/25 06:08:31;;;;;;;39.20;19.20;;;;;;;;;;5131754;27;20015;-83
2021/01/25 06:10:59;;;;;;;44.73;20.83;;;;;;;;;;5132293;27;20035;-83
2021/01/25 06:13:28;;;;;;;38.93;19.37;;;;;;;;;;5131673;27;20430;-83
2021/01/25 06:15:55;;;;;;;41.40;20.70;;;;;;;;;;5133409;27;20030;-82
2021/01/25 06:18:21;;;;;;;40.93;20.40;;;;;;;;;;5133578;27;20015;-83
2021/01/25 06:20:47;;;;;;;45.80;21.57;;;;;;;;;;5133600;27;20022;-82
2021/01/25 06:23:13;;;;;;;46.50;21.20;;;;;;;;;;5133199;27;20015;-83
2021/01/25 06:25:38;;;;;;;44.80;20.10;;;;;;;;;;5133638;27;20118;-82
2021/01/25 06:28:04;;;;;;;41.70;20.27;;;;;;;;;;5133831;27;20048;-83
2021/01/25 06:30:30;;;;;;;46.07;21.83;;;;;;;;;;5133522;27;20021;-82
2021/01/25 06:32:57;;;;;;;47.57;20.83;;;;;;;;;;5133082;27;20091;-82
2021/01/25 06:35:22;;;;;;;45.80;21.50;;;;;;;;;;5133321;27;20029;-83
2021/01/25 06:37:54;;;;;;;48.07;20.33;;;;;;;;;;5133369;27;20011;-83
2021/01/25 06:40:27;;;;;;;44.65;21.10;;;;;;;;;;5134052;27;20011;-83
2021/01/25 06:42:53;;;;;;;39.80;19.87;;;;;;;;;;5132564;27;20019;-82
2021/01/25 06:45:21;;;;;;;42.13;19.17;;;;;;;;;;5133213;27;20076;-82
2021/01/25 06:47:46;;;;;;;42.07;18.70;;;;;;;;;;5132401;27;20567;-83
2021/01/25 06:50:12;;;;;;;35.57;17.27;;;;;;;;;;5132832;27;20061;-83
2021/01/25 06:52:38;;;;;;;42.13;19.40;;;;;;;;;;5132929;27;20478;-83
2021/01/25 06:55:04;;;;;;;38.43;18.83;;;;;;;;;;5134349;27;20035;-83
2021/01/25 06:57:32;;;;;;;44.33;19.53;;;;;;;;;;5132752;27;20019;-82
2021/01/25 06:59:57;;;;;;;40.07;17.30;;;;;;;;;;5132563;27;20012;-82
2021/01/25 07:02:25;;;;;;;49.60;20.83;;;;;;;;;;5133200;27;20123;-83
2021/01/25 07:04:57;;;;;;;40.93;19.03;;;;;;;;;;5131209;27;20037;-83
2021/01/25 07:07:23;;;;;;;38.67;19.73;;;;;;;;;;5133096;27;20026;-83
2021/01/25 07:09:48;;;;;;;41.03;18.60;;;;;;;;;;5132825;27;20434;-83
2021/01/25 07:12:13;;;;;;;41.63;20.60;;;;;;;;;;5130167;27;20061;-83
2021/01/25 07:14:39;;;;;;;44.73;21.00;;;;;;;;;;5131823;27;20389;-83
2021/01/25 07:17:04;;;;;;;45.57;21.40;;;;;;;;;;5132142;27;20035;-83
2021/01/25 07:19:29;;;;;;;41.57;19.40;;;;;;;;;;5133560;27;20023;-83
2021/01/25 07:21:55;;;;;;;43.53;20.30;;;;;;;;;;5132090;27;20052;-83
2021/01/25 07:24:21;;;;;;;43.23;20.30;;;;;;;;;;5131182;27;20058;-83
2021/01/25 07:26:53;;;;;;;47.53;21.30;;;;;;;;;;5132958;27;20019;-83
2021/01/25 07:29:19;;;;;;;46.28;21.17;;;;;;;;;;5133444;27;20027;-83
2021/01/25 07:31:44;;;;;;;41.30;21.07;;;;;;;;;;5129530;27;20516;-84
2021/01/25 07:34:10;;;;;;;41.17;19.13;;;;;;;;;;5131220;27;20023;-83
2021/01/25 07:36:36;;;;;;;38.07;19.10;;;;;;;;;;5132928;27;20079;-83
2021/01/25 07:39:03;;;;;;;39.50;20.03;;;;;;;;;;5131467;27;20105;-84
2021/01/25 07:41:29;;;;;;;35.60;19.50;;;;;;;;;;5131992;27;20471;-84
2021/01/25 07:43:55;;;;;;;42.47;22.87;;;;;;;;;;5130963;27;20090;-84
2021/01/25 07:46:21;;;;;;;40.83;19.87;;;;;;;;;;5130982;27;20469;-84
2021/01/25 07:48:50;;;;;;;36.83;19.70;;;;;;;;;;5132210;27;20428;-84
2021/01/25 07:51:22;;;;;;;39.13;19.47;;;;;;;;;;5131800;27;20031;-84
2021/01/25 07:53:48;;;;;;;50.08;23.45;;;;;;;;;;5131964;27;20023;-83
2021/01/25 07:56:17;;;;;;;48.80;22.03;;;;;;;;;;5131757;27;20019;-83
2021/01/25 07:58:43;;;;;;;44.47;22.57;;;;;;;;;;5131498;27;20477;-84
2021/01/25 08:01:21;;;;;;;47.67;23.37;;;;;;;;;;5131618;27;20016;-83
2021/01/25 08:03:48;;;;;;;51.23;23.87;;;;;;;;;;5131823;27;20026;-84
2021/01/25 08:06:14;;;;;;;55.00;25.60;;;;;;;;;;5131018;27;20110;-83
2021/01/25 08:08:39;;;;;;;52.13;25.20;;;;;;;;;;5131691;27;20113;-84
2021/01/25 08:11:08;;;;;;;49.30;25.43;;;;;;;;;;5131442;27;20042;-84
2021/01/25 08:13:35;;;;;;;50.13;24.03;;;;;;;;;;5143894;27;20051;-84
2021/01/25 08:16:03;;;;;;;61.30;28.27;;;;;;;;;;5131970;28;20015;-83
2021/01/25 08:18:34;;;;;;;63.90;28.23;;;;;;;;;;5131875;28;20011;-84
2021/01/25 08:21:02;;;;;;;57.37;27.10;;;;;;;;;;5131814;28;20799;-84
2021/01/25 08:23:28;;;;;;;66.50;29.93;;;;;;;;;;5131218;28;20007;-84
2021/01/25 08:25:57;;;;;;;63.57;28.30;;;;;;;;;;5131509;28;20034;-84
2021/01/25 08:28:23;;;;;;;66.00;29.60;;;;;;;;;;5130387;27;20430;-84
2021/01/25 08:30:50;;;;;;;64.43;28.43;;;;;;;;;;5131100;28;20110;-84
2021/01/25 08:33:28;;;;;;;71.00;31.53;;;;;;;;;;5131111;28;20397;-83
2021/01/25 08:35:55;;;;;;;69.47;30.70;;;;;;;;;;5131447;27;20012;-86
2021/01/25 08:38:23;;;;;;;67.87;29.97;;;;;;;;;;5129352;28;20019;-84
2021/01/25 08:40:49;;;;;;;66.07;29.27;;;;;;;;;;5133286;27;20019;-84
2021/01/25 08:43:31;;;;;;;67.80;29.33;;;;;;;;;;5131485;28;20486;-83
2021/01/25 08:46:15;;;;;;;64.00;32.28;;;;;;;;;;5131301;28;20420;-83
2021/01/25 08:48:41;;;;;;;65.27;29.43;;;;;;;;;;5119499;28;20046;-84
2021/01/25 08:51:18;;;;;;;68.47;29.27;;;;;;;;;;5129087;28;20019;-83
2021/01/25 08:53:44;;;;;;;68.43;31.20;;;;;;;;;;5131498;28;20030;-84
2021/01/25 08:56:18;;;;;;;65.37;29.40;;;;;;;;;;5130903;28;20022;-83
2021/01/25 08:58:44;;;;;;;67.90;30.43;;;;;;;;;;5145405;27;20012;-84
2021/01/25 09:01:17;;;;;;;67.00;28.60;;;;;;;;;;5145311;27;20083;-83
2021/01/25 09:03:43;;;;;;;63.07;28.17;;;;;;;;;;5130799;27;20102;-83
2021/01/25 09:06:09;;;;;;;64.47;28.73;;;;;;;;;;5133071;27;20055;-83
2021/01/25 09:08:34;;;;;;;60.70;28.03;;;;;;;;;;5138631;27;20092;-83
2021/01/25 09:10:59;;;;;;;69.30;29.83;;;;;;;;;;5140381;27;20501;-83
2021/01/25 09:13:25;;;;;;;61.43;29.13;;;;;;;;;;5134175;27;20019;-84
2021/01/25 09:15:50;;;;;;;60.93;27.57;;;;;;;;;;5134590;27;20061;-84
2021/01/25 09:18:15;;;;;;;59.40;27.17;;;;;;;;;;5134212;27;20030;-84
2021/01/25 09:20:40;;;;;;;64.23;29.47;;;;;;;;;;5134461;27;20023;-83
2021/01/25 09:23:06;;;;;;;63.87;31.77;;;;;;;;;;5133216;27;20023;-82
2021/01/25 09:25:32;;;;;;;61.80;29.67;;;;;;;;;;5134594;27;20023;-83
2021/01/25 09:27:57;;;;;;;61.40;29.00;;;;;;;;;;5134489;27;20021;-83
2021/01/25 09:30:24;;;;;;;62.67;30.00;;;;;;;;;;5129872;27;20031;-83
2021/01/25 09:32:50;;;;;;;57.23;27.63;;;;;;;;;;5134443;27;20020;-83
2021/01/25 09:35:16;;;;;;;60.13;29.67;;;;;;;;;;5134195;27;20456;-83
2021/01/25 09:37:41;;;;;;;57.30;28.20;;;;;;;;;;5133310;27;21452;-83
2021/01/25 09:40:07;;;;;;;52.60;24.87;;;;;;;;;;5134139;27;20107;-83
2021/01/25 09:42:32;;;;;;;52.83;27.33;;;;;;;;;;5133836;27;20371;-83
2021/01/25 09:44:58;;;;;;;53.10;25.73;;;;;;;;;;5134160;27;20044;-82
2021/01/25 09:47:23;;;;;;;58.87;30.53;;;;;;;;;;5133806;27;20445;-82
2021/01/25 09:49:48;;;;;;;50.83;24.80;;;;;;;;;;5132614;27;20358;-83
2021/01/25 09:52:13;;;;;;;84.50;39.87;;;;;;;;;;5134164;27;20127;-83
2021/01/25 09:54:39;;;;;;;64.77;33.27;;;;;;;;;;5133598;27;20403;-83
2021/01/25 09:57:04;;;;;;;62.20;33.47;;;;;;;;;;5133758;27;20023;-83
2021/01/25 09:59:29;;;;;;;57.67;29.80;;;;;;;;;;5133543;27;20025;-83
2021/01/25 10:01:55;;;;;;;49.77;25.80;;;;;;;;;;5133892;27;20075;-83
2021/01/25 10:04:20;;;;;;;45.83;24.60;;;;;;;;;;5133917;27;20507;-83
2021/01/25 10:06:45;;;;;;;47.83;24.13;;;;;;;;;;5133954;27;20469;-83
2021/01/25 10:09:10;;;;;;;49.13;24.07;;;;;;;;;;5134011;27;20038;-83
2021/01/25 10:11:36;;;;;;;45.43;22.87;;;;;;;;;;5133916;27;20385;-83
2021/01/25 10:14:01;;;;;;;42.40;21.67;;;;;;;;;;5134008;27;20442;-83
2021/01/25 10:16:26;;;;;;;47.00;22.77;;;;;;;;;;5133301;27;20023;-83
2021/01/25 10:18:51;;;;;;;46.53;24.90;;;;;;;;;;5133529;27;20102;-83
2021/01/25 10:21:17;;;;;;;46.47;23.10;;;;;;;;;;5132010;27;20471;-83
2021/01/25 10:23:43;;;;;;;45.80;23.70;;;;;;;;;;5132192;27;20004;-82
2021/01/25 10:26:08;;;;;;;47.63;24.43;;;;;;;;;;5131124;27;20054;-82
2021/01/25 10:28:33;;;;;;;45.77;23.17;;;;;;;;;;5130948;27;20022;-83
2021/01/25 10:30:59;;;;;;;47.83;24.73;;;;;;;;;;5133628;27;20084;-83
2021/01/25 10:33:24;;;;;;;48.53;25.67;;;;;;;;;;5131993;27;20031;-83
2021/01/25 10:35:49;;;;;;;46.40;22.80;;;;;;;;;;5133023;27;20011;-82
2021/01/25 10:38:14;;;;;;;46.43;23.70;;;;;;;;;;5131219;27;20041;-82
2021/01/25 10:40:39;;;;;;;47.23;23.37;;;;;;;;;;5131539;27;20080;-82
2021/01/25 10:43:06;;;;;;;49.00;25.90;;;;;;;;;;5132312;27;20093;-83
2021/01/25 10:45:31;;;;;;;48.73;23.80;;;;;;;;;;5131658;27;20163;-83
2021/01/25 10:47:56;;;;;;;53.23;24.20;;;;;;;;;;5132857;27;20087;-83
2021/01/25 10:50:22;;;;;;;44.47;21.40;;;;;;;;;;5132956;27;20462;-83
2021/01/25 10:52:47;;;;;;;46.67;24.43;;;;;;;;;;5133517;27;20026;-82
2021/01/25 10:55:13;;;;;;;45.97;23.83;;;;;;;;;;5132538;27;20023;-82
2021/01/25 10:57:38;;;;;;;42.83;22.33;;;;;;;;;;5132847;27;20435;-83
2021/01/25 11:00:05;;;;;;;47.70;23.50;;;;;;;;;;5134939;27;20108;-83
2021/01/25 11:02:30;;;;;;;47.87;23.10;;;;;;;;;;5132845;27;20031;-82
2021/01/25 11:04:56;;;;;;;43.37;22.20;;;;;;;;;;5132922;27;20041;-83
2021/01/25 11:07:21;;;;;;;50.40;24.60;;;;;;;;;;5132064;27;20431;-82
2021/01/25 11:09:46;;;;;;;47.17;24.73;;;;;;;;;;5132556;27;20098;-82
2021/01/25 11:12:11;;;;;;;45.00;21.83;;;;;;;;;;5132652;27;20110;-83
2021/01/25 11:14:37;;;;;;;44.17;22.57;;;;;;;;;;5132876;27;20062;-82
2021/01/25 11:17:02;;;;;;;45.90;21.80;;;;;;;;;;5132669;27;20015;-82
2021/01/25 11:19:27;;;;;;;47.97;24.93;;;;;;;;;;5132549;27;20015;-83
2021/01/25 11:21:52;;;;;;;51.53;25.60;;;;;;;;;;5132275;27;20015;-82
2021/01/25 11:24:17;;;;;;;45.83;22.30;;;;;;;;;;5132424;27;20407;-82
2021/01/25 11:26:42;;;;;;;45.70;23.87;;;;;;;;;;5131760;27;20034;-82
2021/01/25 11:29:09;;;;;;;48.23;23.23;;;;;;;;;;5132352;27;20419;-83
2021/01/25 11:31:35;;;;;;;42.03;20.70;;;;;;;;;;5132234;27;20019;-81
2021/01/25 11:34:00;;;;;;;44.10;21.57;;;;;;;;;;5132154;27;20461;-82
2021/01/25 11:36:25;;;;;;;48.97;23.37;;;;;;;;;;5131920;27;20027;-82
2021/01/25 11:38:50;;;;;;;47.13;22.47;;;;;;;;;;5130798;27;20015;-82
2021/01/25 11:41:16;;;;;;;46.27;22.90;;;;;;;;;;5132272;27;20077;-82
2021/01/25 11:43:41;;;;;;;50.77;25.20;;;;;;;;;;5130595;27;20083;-83
2021/01/25 11:46:06;;;;;;;58.03;25.93;;;;;;;;;;5131721;27;20386;-83
2021/01/25 11:48:32;;;;;;;53.53;25.40;;;;;;;;;;5131946;27;20524;-83
2021/01/25 11:50:59;;;;;;;52.67;25.30;;;;;;;;;;5130674;27;20076;-83
2021/01/25 11:53:25;;;;;;;51.47;24.90;;;;;;;;;;5130372;27;20545;-82
2021/01/25 11:55:50;;;;;;;53.70;26.43;;;;;;;;;;5130299;27;20123;-82
2021/01/25 11:58:15;;;;;;;55.47;25.37;;;;;;;;;;5131734;27;20052;-82
2021/01/25 12:00:40;;;;;;;46.90;23.00;;;;;;;;;;5131172;27;20023;-83
2021/01/25 12:03:05;;;;;;;52.70;24.80;;;;;;;;;;5130463;27;20091;-82
2021/01/25 12:05:31;;;;;;;52.37;26.27;;;;;;;;;;5131739;27;20081;-82
2021/01/25 12:07:59;;;;;;;45.27;22.37;;;;;;;;;;5131681;27;20019;-82
2021/01/25 12:10:25;;;;;;;47.57;23.00;;;;;;;;;;5131928;27;20023;-83
2021/01/25 12:12:50;;;;;;;51.47;27.13;;;;;;;;;;5131188;27;20019;-82
2021/01/25 12:15:15;;;;;;;54.53;26.33;;;;;;;;;;5131423;27;20023;-83
2021/01/25 12:17:40;;;;;;;55.97;27.73;;;;;;;;;;5131649;28;20069;-83
2021/01/25 12:20:06;;;;;;;57.50;28.13;;;;;;;;;;5131881;28;20021;-83
2021/01/25 12:22:31;;;;;;;54.90;26.80;;;;;;;;;;5130838;28;20027;-83
2021/01/25 12:24:56;;;;;;;49.13;23.83;;;;;;;;;;5132218;28;20411;-82
2021/01/25 12:27:21;;;;;;;49.67;24.40;;;;;;;;;;5131130;28;20110;-83
2021/01/25 12:29:47;;;;;;;45.87;21.77;;;;;;;;;;5129674;27;20378;-82
2021/01/25 12:32:12;;;;;;;47.43;22.10;;;;;;;;;;5134065;27;20042;-82
2021/01/25 12:34:38;;;;;;;49.30;25.37;;;;;;;;;;5128615;28;20023;-82
2021/01/25 12:37:03;;;;;;;51.77;25.70;;;;;;;;;;5130218;28;20019;-83
2021/01/25 12:39:28;;;;;;;50.37;24.00;;;;;;;;;;5133704;27;20015;-82
2021/01/25 12:41:54;;;;;;;51.83;25.90;;;;;;;;;;5134799;27;20015;-83
2021/01/25 12:44:19;;;;;;;55.07;25.53;;;;;;;;;;5134888;27;20458;-83
2021/01/25 12:46:44;;;;;;;51.77;27.20;;;;;;;;;;5135619;27;20350;-82
2021/01/25 12:49:11;;;;;;;43.97;23.60;;;;;;;;;;5135021;27;20118;-82
2021/01/25 12:51:37;;;;;;;45.00;21.27;;;;;;;;;;5134088;27;20091;-83
2021/01/25 12:54:02;;;;;;;50.13;27.93;;;;;;;;;;5135473;27;20019;-82
2021/01/25 12:56:27;;;;;;;52.50;26.60;;;;;;;;;;5134932;27;20019;-83
2021/01/25 12:58:52;;;;;;;43.60;19.23;;;;;;;;;;5134360;27;20023;-83
2021/01/25 13:01:17;;;;;;;40.23;18.83;;;;;;;;;;5132133;27;20019;-82
2021/01/25 13:03:44;;;;;;;38.67;18.80;;;;;;;;;;5134758;27;20053;-82
2021/01/25 13:06:10;;;;;;;39.60;20.73;;;;;;;;;;5134678;27;20030;-83
2021/01/25 13:08:35;;;;;;;42.83;21.27;;;;;;;;;;5133355;27;20023;-83
2021/01/25 13:11:00;;;;;;;39.50;19.00;;;;;;;;;;5134321;27;20401;-82
2021/01/25 13:13:25;;;;;;;39.53;21.37;;;;;;;;;;5134769;27;20526;-83
2021/01/25 13:15:50;;;;;;;37.50;19.47;;;;;;;;;;5134434;27;20462;-83
2021/01/25 13:18:16;;;;;;;35.53;17.10;;;;;;;;;;5134414;27;20136;-82
2021/01/25 13:20:41;;;;;;;30.57;14.97;;;;;;;;;;5135182;27;20011;-82
2021/01/25 13:23:06;;;;;;;31.33;15.60;;;;;;;;;;5134988;27;20022;-82
2021/01/25 13:25:31;;;;;;;34.03;16.00;;;;;;;;;;5134415;27;20015;-83
2021/01/25 13:27:57;;;;;;;32.37;17.40;;;;;;;;;;5133809;27;20026;-83
2021/01/25 13:30:23;;;;;;;30.63;14.53;;;;;;;;;;5148509;27;20027;-82
2021/01/25 13:32:48;;;;;;;33.47;16.93;;;;;;;;;;5130985;27;20424;-83
2021/01/25 13:35:15;;;;;;;35.33;16.57;;;;;;;;;;5133807;27;20027;-82
2021/01/25 13:37:41;;;;;;;36.53;19.07;;;;;;;;;;5135250;27;20521;-82
2021/01/25 13:40:07;;;;;;;38.27;20.77;;;;;;;;;;5134185;27;20106;-82
2021/01/25 13:42:33;;;;;;;35.77;18.87;;;;;;;;;;5133557;27;20118;-82
2021/01/25 13:44:58;;;;;;;40.30;21.23;;;;;;;;;;5134220;27;20038;-83
2021/01/25 13:47:24;;;;;;;40.77;20.67;;;;;;;;;;5143596;27;20434;-82
2021/01/25 13:49:49;;;;;;;40.10;20.63;;;;;;;;;;5133507;27;20079;-82
2021/01/25 13:52:14;;;;;;;35.63;17.37;;;;;;;;;;5133663;27;20019;-82
2021/01/25 13:54:39;;;;;;;29.87;14.43;;;;;;;;;;5132798;27;20583;-84
2021/01/25 13:57:05;;;;;;;27.77;13.67;;;;;;;;;;5134122;27;20110;-83
2021/01/25 13:59:30;;;;;;;29.40;15.17;;;;;;;;;;5134074;27;20894;-83
2021/01/25 14:01:56;;;;;;;30.57;15.23;;;;;;;;;;5133997;27;20011;-83
2021/01/25 14:04:21;;;;;;;30.60;13.23;;;;;;;;;;5135332;27;20022;-82
2021/01/25 14:06:47;;;;;;;25.87;12.97;;;;;;;;;;5135630;27;20355;-83
2021/01/25 14:09:12;;;;;;;29.93;12.43;;;;;;;;;;5133758;27;20524;-83
2021/01/25 14:11:37;;;;;;;30.23;13.23;;;;;;;;;;5133297;27;20114;-83
2021/01/25 14:14:02;;;;;;;30.27;14.23;;;;;;;;;;5132576;27;20385;-82
2021/01/25 14:16:27;;;;;;;25.97;13.33;;;;;;;;;;5134815;27;20411;-83